Time;durP1;ratioP1;P1;durP2;ratioP2;P2;SDS_P1;SDS_P2;PMS_P1;PMS_P2;Temp;Humidity;BMP_temperature;BMP_pressure;BME280_temperature;BME280_humidity;BME280_pressure;Samples;Min_cycle;Max_cycle;Signal;HPM_P1;HPM_P2
2022/01/23 00:01:36;;;;;;;22.5;14.7;;;;;;;;;;;;;
2022/01/23 00:03:57;;;;;;;23.3;16;;;;;;;;;;;;;
2022/01/23 00:06:24;;;;;;;21.2;15.1;;;;;;;;;;;;;
2022/01/23 00:08:53;;;;;;;17.9;13.3;;;;;;;;;;;;;
2022/01/23 00:11:24;;;;;;;15.9;11.4;;;;;;;;;;;;;
2022/01/23 00:18:41;;;;;;;14.6;10.7;;;;;;;;;;;;;
2022/01/23 00:21:10;;;;;;;15;10.8;;;;;;;;;;;;;
2022/01/23 00:30:19;;;;;;;12.5;9.5;;;;;;;;;;;;;
2022/01/23 00:30:22;;;;;;;12.7;9.4;;;;;;;;;;;;;
2022/01/23 00:30:55;;;;;;;11.9;9.1;;;;;;;;;;;;;
2022/01/23 00:33:20;;;;;;;11;8.5;;;;;;;;;;;;;
2022/01/23 00:35:45;;;;;;;10.8;9.1;;;;;;;;;;;;;
2022/01/23 00:38:10;;;;;;;10.9;8.5;;;;;;;;;;;;;
2022/01/23 00:40:35;;;;;;;11.2;8.5;;;;;;;;;;;;;
2022/01/23 00:43:07;;;;;;;11.9;9.2;;;;;;;;;;;;;
2022/01/23 00:45:31;;;;;;;10.7;8.4;;;;;;;;;;;;;
2022/01/23 00:47:55;;;;;;;9.6;8;;;;;;;;;;;;;
2022/01/23 00:50:20;;;;;;;9.6;8;;;;;;;;;;;;;
2022/01/23 00:52:45;;;;;;;10.8;8.5;;;;;;;;;;;;;
2022/01/23 00:55:14;;;;;;;10.2;8.7;;;;;;;;;;;;;
2022/01/23 00:57:39;;;;;;;9.6;8.1;;;;;;;;;;;;;
2022/01/23 01:00:05;;;;;;;10.7;8.4;;;;;;;;;;;;;
2022/01/23 01:02:30;;;;;;;10.8;8.9;;;;;;;;;;;;;
2022/01/23 01:04:57;;;;;;;11.1;9.1;;;;;;;;;;;;;
2022/01/23 01:07:22;;;;;;;11.9;9.1;;;;;;;;;;;;;
2022/01/23 01:09:50;;;;;;;12.2;9.4;;;;;;;;;;;;;
2022/01/23 01:12:17;;;;;;;12.1;9.4;;;;;;;;;;;;;
2022/01/23 01:15:12;;;;;;;12.9;9.9;;;;;;;;;;;;;
2022/01/23 01:17:10;;;;;;;12.5;8.8;;;;;;;;;;;;;
2022/01/23 01:31:41;;;;;;;20.9;13.1;;;;;;;;;;;;;
2022/01/23 01:34:07;;;;;;;20.7;12.4;;;;;;;;;;;;;
2022/01/23 01:36:34;;;;;;;16.7;11.9;;;;;;;;;;;;;
2022/01/23 01:38:52;;;;;;;12.6;9.4;;;;;;;;;;;;;
2022/01/23 01:41:18;;;;;;;11.2;8.6;;;;;;;;;;;;;
2022/01/23 01:43:43;;;;;;;10.3;8;;;;;;;;;;;;;
2022/01/23 01:46:09;;;;;;;11.2;8.4;;;;;;;;;;;;;
2022/01/23 01:48:35;;;;;;;12.9;9.4;;;;;;;;;;;;;
2022/01/23 01:51:01;;;;;;;14.5;10.4;;;;;;;;;;;;;
2022/01/23 01:53:26;;;;;;;18;12.5;;;;;;;;;;;;;
2022/01/23 01:55:56;;;;;;;19.6;13.2;;;;;;;;;;;;;
2022/01/23 01:58:55;;;;;;;21.9;14;;;;;;;;;;;;;
2022/01/23 02:00:52;;;;;;;28.9;16.8;;;;;;;;;;;;;
2022/01/23 02:08:19;;;;;;;33.5;18.9;;;;;;;;;;;;;
2022/01/23 02:10:24;;;;;;;30.9;18;;;;;;;;;;;;;
2022/01/23 02:13:10;;;;;;;33;18.3;;;;;;;;;;;;;
2022/01/23 02:15:43;;;;;;;31.3;19;;;;;;;;;;;;;
2022/01/23 02:17:57;;;;;;;34.2;19.4;;;;;;;;;;;;;
2022/01/23 02:22:55;;;;;;;24.7;15.1;;;;;;;;;;;;;
2022/01/23 02:25:29;;;;;;;25.9;15.8;;;;;;;;;;;;;
2022/01/23 02:51:48;;;;;;;17.8;12.3;;;;;;;;;;;;;
2022/01/23 02:54:26;;;;;;;16.3;11.3;;;;;;;;;;;;;
2022/01/23 02:56:34;;;;;;;17.7;11.4;;;;;;;;;;;;;
2022/01/23 02:59:00;;;;;;;15.5;11.4;;;;;;;;;;;;;
2022/01/23 03:01:19;;;;;;;18.1;11.9;;;;;;;;;;;;;
2022/01/23 03:03:49;;;;;;;18.2;12.1;;;;;;;;;;;;;
2022/01/23 03:06:22;;;;;;;16.8;12.2;;;;;;;;;;;;;
2022/01/23 03:08:58;;;;;;;15.9;11.2;;;;;;;;;;;;;
2022/01/23 03:11:05;;;;;;;17.2;12;;;;;;;;;;;;;
2022/01/23 03:13:44;;;;;;;17.2;11.9;;;;;;;;;;;;;
2022/01/23 03:26:03;;;;;;;13.1;10;;;;;;;;;;;;;
2022/01/23 03:28:18;;;;;;;13.6;9.5;;;;;;;;;;;;;
2022/01/23 03:30:26;;;;;;;13.8;10.1;;;;;;;;;;;;;
2022/01/23 03:32:50;;;;;;;13.7;9.9;;;;;;;;;;;;;
2022/01/23 03:35:13;;;;;;;13.4;9.6;;;;;;;;;;;;;
2022/01/23 03:37:38;;;;;;;13.8;10.4;;;;;;;;;;;;;
2022/01/23 03:40:03;;;;;;;13.3;9.6;;;;;;;;;;;;;
2022/01/23 03:42:30;;;;;;;12.1;8.8;;;;;;;;;;;;;
2022/01/23 03:45:11;;;;;;;14.4;10.6;;;;;;;;;;;;;
2022/01/23 03:47:34;;;;;;;13.3;9.6;;;;;;;;;;;;;
2022/01/23 03:49:44;;;;;;;11.4;9.1;;;;;;;;;;;;;
2022/01/23 03:52:09;;;;;;;12;9.3;;;;;;;;;;;;;
2022/01/23 03:54:34;;;;;;;12.9;9.7;;;;;;;;;;;;;
2022/01/23 03:56:59;;;;;;;14.8;10.5;;;;;;;;;;;;;
2022/01/23 03:59:24;;;;;;;14.5;10.7;;;;;;;;;;;;;
2022/01/23 04:02:31;;;;;;;13.2;9.5;;;;;;;3.09;92.30469;951.2505;;;;
2022/01/23 04:04:56;;;;;;;12.6;9.4;;;;;;;3.11;91.55664;951.2352;;;;
2022/01/23 04:07:27;;;;;;;12;9.5;;;;;;;3.03;91.91016;951.2651;;;;
2022/01/23 04:09:49;;;;;;;12.7;10.5;;;;;;;3.02;91.87402;951.2674;;;;
2022/01/23 04:12:36;;;;;;;14.5;11.6;;;;;;;3.05;92.00293;951.2994;;;;
2022/01/23 04:14:50;;;;;;;13;9.9;;;;;;;3.11;91.53418;951.2791;;;;
2022/01/23 04:17:45;;;;;;;11.9;9.8;;;;;;;3.05;90.91504;951.2969;;;;
2022/01/23 04:19:54;;;;;;;11;9.3;;;;;;;2.99;91.82129;951.3455;;;;
2022/01/23 04:32:05;;;;;;;11.1;8.8;;;;;;;3.06;91.4668;951.2927;;;;
2022/01/23 04:34:20;;;;;;;11.9;8.6;;;;;;;3.12;90.8291;951.2317;;;;
2022/01/23 04:46:48;;;;;;;13.3;10.1;;;;;;;2.98;91.76563;951.3714;;;;
2022/01/23 04:59:29;;;;;;;13.4;9.8;;;;;;;2.96;92.04004;951.4155;;;;
2022/01/23 05:01:04;;;;;;;14.8;10.8;;;;;;;2.81;93.48926;951.4886;;;;
2022/01/23 05:05:58;;;;;;;15;11.2;;;;;;;2.99;92.66504;951.5762;;;;
2022/01/23 05:08:17;;;;;;;14.8;11;;;;;;;3.1;91.73438;951.5117;;;;
2022/01/23 05:10:38;;;;;;;16.3;11.7;;;;;;;3.03;91.99902;951.5705;;;;
2022/01/23 05:13:05;;;;;;;14.9;11.1;;;;;;;3.01;92.09473;951.6083;;;;
2022/01/23 05:15:33;;;;;;;17.6;12.9;;;;;;;3.03;91.98828;951.6214;;;;
2022/01/23 05:17:58;;;;;;;15.4;11.1;;;;;;;2.98;92.48145;951.5793;;;;
2022/01/23 05:20:29;;;;;;;14.4;10.9;;;;;;;2.95;92.69824;951.565;;;;
2022/01/23 05:22:58;;;;;;;13.3;10.6;;;;;;;3.01;92.63477;951.6102;;;;
2022/01/23 05:25:23;;;;;;;15.2;11.4;;;;;;;3.03;92.69531;951.5764;;;;
2022/01/23 05:27:44;;;;;;;14.6;11.3;;;;;;;3.04;92.78711;951.5754;;;;
2022/01/23 05:30:15;;;;;;;14.6;11.2;;;;;;;3.03;92.53809;951.6334;;;;
2022/01/23 05:32:45;;;;;;;13.4;10.6;;;;;;;3.1;92.01465;951.5793;;;;
2022/01/23 05:35:17;;;;;;;13.4;10.6;;;;;;;3.21;91.16309;951.5506;;;;
2022/01/23 05:37:41;;;;;;;16.4;11;;;;;;;3.08;91.4834;951.4664;;;;
2022/01/23 05:40:07;;;;;;;14.8;11.4;;;;;;;3.07;91.6709;951.4498;;;;
2022/01/23 05:42:32;;;;;;;15.3;11.1;;;;;;;3.1;91.59766;951.5318;;;;
2022/01/23 05:44:59;;;;;;;14.6;11;;;;;;;3.13;91.48047;951.5421;;;;
2022/01/23 05:47:24;;;;;;;17.4;11.8;;;;;;;3.18;91.31445;951.5028;;;;
2022/01/23 05:49:52;;;;;;;17.3;13;;;;;;;3.24;90.89941;951.5002;;;;
2022/01/23 05:52:20;;;;;;;17.4;12.7;;;;;;;3.22;91.05273;951.5449;;;;
2022/01/23 05:54:46;;;;;;;18.8;13.3;;;;;;;3.13;91.50684;951.6063;;;;
2022/01/23 05:57:11;;;;;;;17.1;12.6;;;;;;;3.3;90.99121;951.5609;;;;
2022/01/23 05:59:36;;;;;;;17.1;12.8;;;;;;;3.32;90.2002;951.4925;;;;
2022/01/23 06:02:02;;;;;;;17.2;12.3;;;;;;;3.19;90.94629;951.5709;;;;
2022/01/23 06:04:29;;;;;;;14.7;10.9;;;;;;;3.12;91.17773;951.5497;;;;
2022/01/23 06:06:56;;;;;;;14;11.1;;;;;;;3.07;91.58105;951.5678;;;;
2022/01/23 06:09:22;;;;;;;14.8;11.3;;;;;;;3.07;91.81641;951.4992;;;;
2022/01/23 06:11:46;;;;;;;15.5;11.8;;;;;;;3.04;91.91211;951.4678;;;;
2022/01/23 06:14:13;;;;;;;15.3;11.3;;;;;;;3.07;91.92871;951.4853;;;;
2022/01/23 06:16:38;;;;;;;13;9.8;;;;;;;3.17;91.32324;951.366;;;;
2022/01/23 06:19:06;;;;;;;11.9;9.9;;;;;;;3.17;91.11035;951.3644;;;;
2022/01/23 06:21:36;;;;;;;13.2;9.6;;;;;;;3.12;91.35645;951.3432;;;;
2022/01/23 06:24:06;;;;;;;13.3;10;;;;;;;3.08;91.31543;951.2744;;;;
2022/01/23 06:26:27;;;;;;;16.2;13.3;;;;;;;3.23;90.71582;951.3428;;;;
2022/01/23 06:28:52;;;;;;;16.7;12.3;;;;;;;3.12;91.11035;951.3434;;;;
2022/01/23 06:31:17;;;;;;;17.1;11.9;;;;;;;3.11;91.25391;951.402;;;;
2022/01/23 06:33:43;;;;;;;20.1;13.9;;;;;;;3.06;91.88184;951.4288;;;;
2022/01/23 06:36:11;;;;;;;18.9;13.8;;;;;;;3.11;91.48926;951.4131;;;;
2022/01/23 06:38:37;;;;;;;19.9;13.1;;;;;;;3.05;91.66699;951.4401;;;;
2022/01/23 06:41:04;;;;;;;18.4;13;;;;;;;3.05;91.80176;951.4819;;;;
2022/01/23 06:43:30;;;;;;;19.6;13.5;;;;;;;3;92.00488;951.4389;;;;
2022/01/23 06:45:56;;;;;;;18.8;13.6;;;;;;;3.07;91.7041;951.4718;;;;
2022/01/23 06:48:21;;;;;;;18.7;13.5;;;;;;;3.06;91.64648;951.4901;;;;
2022/01/23 06:50:46;;;;;;;19.8;15;;;;;;;3.11;91.62207;951.5551;;;;
2022/01/23 06:53:11;;;;;;;20.2;15.5;;;;;;;3.11;91.52344;951.5988;;;;
2022/01/23 06:55:40;;;;;;;17.3;12.8;;;;;;;3.28;90.87305;951.5765;;;;
2022/01/23 06:58:05;;;;;;;17.3;12.7;;;;;;;3.25;90.74414;951.6194;;;;
2022/01/23 07:00:34;;;;;;;21.8;13;;;;;;;3.14;91.2373;951.679;;;;
2022/01/23 07:02:58;;;;;;;19.5;14.3;;;;;;;3.1;91.29688;951.7399;;;;
2022/01/23 07:05:25;;;;;;;16.4;12.8;;;;;;;2.97;91.69434;951.7812;;;;
2022/01/23 07:07:51;;;;;;;14.8;10.4;;;;;;;2.58;93.42773;951.8611;;;;
2022/01/23 07:10:21;;;;;;;14.8;10.4;;;;;;;2.61;94.10645;951.8828;;;;
2022/01/23 07:12:47;;;;;;;14.7;10.2;;;;;;;2.72;93.6123;951.8719;;;;
2022/01/23 07:15:12;;;;;;;13.9;10.4;;;;;;;2.68;93.72754;951.9286;;;;
2022/01/23 07:17:38;;;;;;;15.3;10.7;;;;;;;2.73;93.67285;951.9405;;;;
2022/01/23 07:20:07;;;;;;;16.8;11.7;;;;;;;2.76;93.54395;952.0327;;;;
2022/01/23 07:22:36;;;;;;;14.6;10.4;;;;;;;2.67;93.9502;952.0916;;;;
2022/01/23 07:25:03;;;;;;;15;10.8;;;;;;;2.75;94.10254;952.0927;;;;
2022/01/23 07:27:33;;;;;;;18.5;13;;;;;;;2.87;94.07227;952.1325;;;;
2022/01/23 07:29:55;;;;;;;18.7;12.5;;;;;;;2.87;93.75879;952.1479;;;;
2022/01/23 07:32:22;;;;;;;17.2;11.9;;;;;;;2.91;93.11816;952.1884;;;;
2022/01/23 07:34:48;;;;;;;16.4;12.4;;;;;;;3.02;92.65918;952.2015;;;;
2022/01/23 07:37:15;;;;;;;17.7;13;;;;;;;3.1;92.2041;952.1692;;;;
2022/01/23 07:39:41;;;;;;;19.5;12.5;;;;;;;3.27;91.36719;952.1429;;;;
2022/01/23 07:42:05;;;;;;;18.7;12.7;;;;;;;3.23;91.07715;952.0917;;;;
2022/01/23 07:44:31;;;;;;;19.4;12.8;;;;;;;3.29;91.16895;952.1322;;;;
2022/01/23 07:46:58;;;;;;;17.8;12.9;;;;;;;3.29;91.3623;952.2197;;;;
2022/01/23 07:49:23;;;;;;;19.1;13.7;;;;;;;3.36;91.38477;952.1802;;;;
2022/01/23 07:51:50;;;;;;;21.5;14.2;;;;;;;3.42;91.09766;952.133;;;;
2022/01/23 07:54:15;;;;;;;19.9;14.6;;;;;;;3.45;90.96777;952.1956;;;;
2022/01/23 07:56:43;;;;;;;22.6;16.8;;;;;;;3.5;90.82031;952.1283;;;;
2022/01/23 07:59:13;;;;;;;23.7;16.3;;;;;;;3.64;90.3457;952.1305;;;;
2022/01/23 08:01:39;;;;;;;18.3;14.1;;;;;;;3.7;89.61621;952.169;;;;
2022/01/23 08:04:04;;;;;;;18.5;13.7;;;;;;;3.69;89.54688;952.134;;;;
2022/01/23 08:06:32;;;;;;;18.3;13.1;;;;;;;3.69;89.71289;952.1004;;;;
2022/01/23 08:08:54;;;;;;;19;13.9;;;;;;;3.69;89.83887;952.2623;;;;
2022/01/23 08:11:20;;;;;;;19.7;14.5;;;;;;;3.81;89.35742;952.2791;;;;
2022/01/23 08:13:45;;;;;;;21.7;15;;;;;;;3.91;88.86328;952.2918;;;;
2022/01/23 08:16:14;;;;;;;21.2;15;;;;;;;3.96;88.60254;952.3148;;;;
2022/01/23 08:18:42;;;;;;;20.2;14.9;;;;;;;3.97;87.98633;952.2335;;;;
2022/01/23 08:21:08;;;;;;;19.4;13.3;;;;;;;3.99;87.96777;952.1805;;;;
2022/01/23 08:23:38;;;;;;;17.5;13.3;;;;;;;3.99;87.90039;952.3027;;;;
2022/01/23 08:26:08;;;;;;;16.3;12.2;;;;;;;3.94;87.31543;952.3674;;;;
2022/01/23 08:28:35;;;;;;;16.6;12.2;;;;;;;4.09;87.42578;952.3472;;;;
2022/01/23 08:31:02;;;;;;;16.6;12.7;;;;;;;4.06;86.8916;952.3203;;;;
2022/01/23 08:33:29;;;;;;;17.2;13.1;;;;;;;4.15;86.93066;952.3904;;;;
2022/01/23 08:35:57;;;;;;;17.9;13.3;;;;;;;4.16;87.27148;952.4329;;;;
2022/01/23 08:38:20;;;;;;;20.3;14.6;;;;;;;4.22;86.45215;952.5189;;;;
2022/01/23 08:40:58;;;;;;;19.2;14.8;;;;;;;4.31;85.40137;952.4377;;;;
2022/01/23 08:43:12;;;;;;;18.7;13.7;;;;;;;4.22;85.39453;952.5094;;;;
2022/01/23 08:45:39;;;;;;;18.7;13.9;;;;;;;4.35;85.26172;952.5156;;;;
2022/01/23 08:48:04;;;;;;;18.8;13.6;;;;;;;4.52;85.2627;952.52;;;;
2022/01/23 08:50:31;;;;;;;21.3;15;;;;;;;4.66;84.51465;952.4988;;;;
2022/01/23 08:52:56;;;;;;;20.6;15;;;;;;;4.83;83.85938;952.4813;;;;
2022/01/23 08:55:24;;;;;;;20.6;13.8;;;;;;;4.97;83.01953;952.4706;;;;
2022/01/23 08:57:49;;;;;;;18;13.4;;;;;;;4.76;82.50488;952.5142;;;;
2022/01/23 09:00:21;;;;;;;18.8;13.5;;;;;;;4.89;82.19238;952.4214;;;;
2022/01/23 09:02:47;;;;;;;19.2;13.6;;;;;;;5.03;81.72461;952.4913;;;;
2022/01/23 09:05:14;;;;;;;17;13.1;;;;;;;4.98;81.02637;952.5697;;;;
2022/01/23 09:07:39;;;;;;;15.9;12.8;;;;;;;5.07;81.54004;952.616;;;;
2022/01/23 09:10:06;;;;;;;17.8;13.1;;;;;;;5.05;81.80664;952.5754;;;;
2022/01/23 09:12:43;;;;;;;17.2;13.4;;;;;;;4.72;82.52148;952.6337;;;;
2022/01/23 09:14:57;;;;;;;18.4;14;;;;;;;4.9;83.2666;952.6373;;;;
2022/01/23 09:17:24;;;;;;;19.1;14.8;;;;;;;4.97;82.70215;952.6961;;;;
2022/01/23 09:19:51;;;;;;;18.1;14.7;;;;;;;5.01;82.83496;952.6813;;;;
2022/01/23 09:22:17;;;;;;;19.1;13.6;;;;;;;5.05;82.55078;952.7087;;;;
2022/01/23 09:24:45;;;;;;;17.5;13.2;;;;;;;5.27;81.35352;952.7122;;;;
2022/01/23 09:27:18;;;;;;;16.2;12.4;;;;;;;5.4;80.81348;952.7798;;;;
2022/01/23 09:29:38;;;;;;;19.6;14;;;;;;;5.35;80.88281;952.7762;;;;
2022/01/23 09:32:03;;;;;;;17.1;12.5;;;;;;;5.51;80.37207;952.7739;;;;
2022/01/23 09:34:31;;;;;;;17.3;13.1;;;;;;;5.55;79.50977;952.723;;;;
2022/01/23 09:36:57;;;;;;;16.9;13;;;;;;;5.61;79.99414;952.6756;;;;
2022/01/23 09:39:23;;;;;;;22.3;13.8;;;;;;;5.08;80.07617;952.6431;;;;
2022/01/23 09:41:49;;;;;;;16.4;12.5;;;;;;;5.09;80.08887;952.7676;;;;
2022/01/23 09:44:15;;;;;;;19;14.2;;;;;;;5.4;80.12598;952.7252;;;;
2022/01/23 09:46:40;;;;;;;16.8;13.3;;;;;;;5.35;78.9873;952.6245;;;;
2022/01/23 09:49:05;;;;;;;17.1;12.1;;;;;;;5.62;79.4209;952.6495;;;;
2022/01/23 09:51:34;;;;;;;14.8;10.6;;;;;;;5.7;78.89453;952.5879;;;;
2022/01/23 09:53:59;;;;;;;15.2;10.8;;;;;;;5.46;79.8877;952.5587;;;;
2022/01/23 09:56:27;;;;;;;15.1;11.4;;;;;;;5.18;80.89746;952.5691;;;;
2022/01/23 09:58:49;;;;;;;13.6;10.7;;;;;;;5.36;81.25684;952.5139;;;;
2022/01/23 10:01:18;;;;;;;12.5;10.2;;;;;;;5.53;80.80371;952.4412;;;;
2022/01/23 10:03:43;;;;;;;11.5;9.5;;;;;;;5.76;79.25488;952.3409;;;;
2022/01/23 10:06:12;;;;;;;10.8;8.5;;;;;;;6.2;77.15527;952.2536;;;;
2022/01/23 10:08:38;;;;;;;9;6.7;;;;;;;6.53;75.60938;952.3145;;;;
2022/01/23 10:11:08;;;;;;;9.9;7.8;;;;;;;6.18;74.87988;952.3176;;;;
2022/01/23 10:13:28;;;;;;;8.3;6.5;;;;;;;6.67;72.98633;952.1948;;;;
2022/01/23 10:16:04;;;;;;;6.7;4.8;;;;;;;6.92;70.7959;952.1857;;;;
2022/01/23 10:18:34;;;;;;;7.6;5.6;;;;;;;5.83;73.63281;952.1317;;;;
2022/01/23 10:20:59;;;;;;;8.4;5.5;;;;;;;6.69;72.28809;952.115;;;;
2022/01/23 10:23:28;;;;;;;6.3;4.7;;;;;;;6.47;70.61133;952.0704;;;;
2022/01/23 10:25:54;;;;;;;11.6;6.8;;;;;;;7.2;70.83105;952.044;;;;
2022/01/23 10:28:20;;;;;;;10.3;6.8;;;;;;;7.41;67.35254;952.0476;;;;
2022/01/23 10:30:45;;;;;;;11.2;7.4;;;;;;;7.82;67.86035;951.9636;;;;
2022/01/23 10:33:10;;;;;;;8.1;6.6;;;;;;;6.8;69.13574;952.0446;;;;
2022/01/23 10:35:36;;;;;;;9.2;7;;;;;;;7.26;70.33105;952.0026;;;;
2022/01/23 10:38:01;;;;;;;10.3;6.8;;;;;;;7.48;68.87012;951.9793;;;;
2022/01/23 10:40:28;;;;;;;8.2;5.9;;;;;;;7.85;67.34473;951.96;;;;
2022/01/23 10:47:48;;;;;;;9.6;7.3;;;;;;;6.04;72.18848;951.9034;;;;
2022/01/23 10:50:11;;;;;;;10.2;7.9;;;;;;;7.01;71.1748;951.8535;;;;
2022/01/23 10:52:38;;;;;;;10.6;7.1;;;;;;;7.3;69.38672;951.8217;;;;
2022/01/23 10:55:03;;;;;;;7.6;6.1;;;;;;;7.46;69.18652;951.8027;;;;
2022/01/23 10:57:28;;;;;;;9.5;6.7;;;;;;;6.84;71.91602;951.8368;;;;
2022/01/23 10:59:54;;;;;;;8.4;6.1;;;;;;;7.37;70.30566;951.7311;;;;
2022/01/23 11:02:21;;;;;;;9.6;5.6;;;;;;;7.8;68.11719;951.7449;;;;
2022/01/23 11:04:43;;;;;;;6.8;5.2;;;;;;;7.67;67.30371;951.719;;;;
2022/01/23 11:07:09;;;;;;;5.9;3.8;;;;;;;6.67;67.49707;951.7751;;;;
2022/01/23 11:09:36;;;;;;;6.3;3.2;;;;;;;6.92;66.7666;951.7115;;;;
2022/01/23 11:12:13;;;;;;;3.8;2.9;;;;;;;6.71;65.5127;951.7516;;;;
2022/01/23 11:19:19;;;;;;;2.3;1.9;;;;;;;6.89;64.63379;951.6223;;;;
2022/01/23 11:21:52;;;;;;;2.1;1.6;;;;;;;7.08;64.42383;951.6007;;;;
2022/01/23 11:24:15;;;;;;;4.1;2.5;;;;;;;7.46;62.90527;951.6161;;;;
2022/01/23 11:26:41;;;;;;;3.2;2.5;;;;;;;7.59;64.5459;951.6005;;;;
2022/01/23 11:29:09;;;;;;;2.8;2.2;;;;;;;7.61;65.73926;951.535;;;;
2022/01/23 11:31:35;;;;;;;2.8;2.2;;;;;;;6.64;64.59473;951.5416;;;;
2022/01/23 11:34:05;;;;;;;2.3;1.9;;;;;;;7.43;65.80273;951.5341;;;;
2022/01/23 11:36:29;;;;;;;10.9;7;;;;;;;7.44;66.91504;951.46;;;;
2022/01/23 11:39:00;;;;;;;14.2;10.7;;;;;;;7.54;68.68945;951.5675;;;;
2022/01/23 11:51:22;;;;;;;16.5;12.4;;;;;;;7.1;71.63184;951.5147;;;;
2022/01/23 11:53:47;;;;;;;20.4;15.4;;;;;;;6.85;72.9707;951.5269;;;;
2022/01/23 11:55:57;;;;;;;18.2;14.2;;;;;;;6.56;73.72461;951.5153;;;;
2022/01/23 11:58:23;;;;;;;18.2;13.5;;;;;;;6.68;74.71973;951.6047;;;;
2022/01/23 12:00:48;;;;;;;19;13.8;;;;;;;6.74;74.60449;951.5105;;;;
2022/01/23 12:03:18;;;;;;;15.3;12.1;;;;;;;6.73;74.74805;951.3819;;;;
2022/01/23 12:05:49;;;;;;;14.9;11.1;;;;;;;6.29;75.66797;951.4406;;;;
2022/01/23 12:08:17;;;;;;;13.7;10.3;;;;;;;6.77;73.2168;951.3823;;;;
2022/01/23 12:10:54;;;;;;;12.6;9.8;;;;;;;6.97;72.20898;951.4097;;;;
2022/01/23 12:13:07;;;;;;;12.2;9.2;;;;;;;7.04;71.55273;951.4002;;;;
2022/01/23 12:18:03;;;;;;;12.9;8.7;;;;;;;6.34;74.61328;951.4038;;;;
2022/01/23 12:20:31;;;;;;;9.9;7.3;;;;;;;7.01;72.19434;951.3798;;;;
2022/01/23 12:22:59;;;;;;;8.2;6;;;;;;;6.92;70.88672;951.3535;;;;
2022/01/23 12:25:32;;;;;;;8.1;6.2;;;;;;;7.15;70.58594;951.3386;;;;
2022/01/23 12:27:57;;;;;;;6.6;5.4;;;;;;;6.43;71.58789;951.3644;;;;
2022/01/23 12:30:23;;;;;;;7.4;6;;;;;;;6.1;75.06934;951.46;;;;
2022/01/23 12:32:48;;;;;;;8.4;6.2;;;;;;;6.58;73.03906;951.4312;;;;
2022/01/23 12:35:15;;;;;;;7;6.1;;;;;;;6.73;73.33496;951.4835;;;;
2022/01/23 12:37:41;;;;;;;8;6.2;;;;;;;6.6;72.64453;951.4961;;;;
2022/01/23 12:40:06;;;;;;;8;6.1;;;;;;;6.53;73.65234;951.452;;;;
2022/01/23 12:42:31;;;;;;;7.5;6.1;;;;;;;6.73;73.57324;951.5239;;;;
2022/01/23 12:44:57;;;;;;;8.6;6.9;;;;;;;6.76;72.74023;951.5367;;;;
2022/01/23 12:47:22;;;;;;;8.5;6.6;;;;;;;6.52;73.35449;951.4861;;;;
2022/01/23 12:49:50;;;;;;;8.9;6.7;;;;;;;6.44;73.76074;951.4874;;;;
2022/01/23 12:52:15;;;;;;;9.4;7.1;;;;;;;6.16;75.45313;951.5449;;;;
2022/01/23 12:54:40;;;;;;;9;7;;;;;;;6.56;73.65625;951.5259;;;;
2022/01/23 12:57:05;;;;;;;10.5;6.8;;;;;;;6.44;73.97461;951.4713;;;;
2022/01/23 12:59:34;;;;;;;10.6;7.1;;;;;;;6.06;75.83008;951.4742;;;;
2022/01/23 13:02:04;;;;;;;9.8;7;;;;;;;6.27;75.05371;951.465;;;;
2022/01/23 13:04:22;;;;;;;9.2;6.6;;;;;;;6;75.2998;951.4264;;;;
2022/01/23 13:06:51;;;;;;;8.7;6.8;;;;;;;6.39;74.82617;951.2885;;;;
2022/01/23 13:09:14;;;;;;;8.6;6.7;;;;;;;5.55;77.00391;951.4052;;;;
2022/01/23 13:11:54;;;;;;;7.7;6.3;;;;;;;5.99;75.55859;951.4164;;;;
2022/01/23 13:14:20;;;;;;;9;6.4;;;;;;;5.95;76.2168;951.3781;;;;
2022/01/23 13:17:09;;;;;;;9.6;7;;;;;;;6.04;75.17285;951.3875;;;;
2022/01/23 13:19:33;;;;;;;8.6;6.5;;;;;;;6.16;74.87695;951.405;;;;
2022/01/23 13:26:46;;;;;;;8.8;6.3;;;;;;;6.27;74.10449;951.317;;;;
2022/01/23 13:31:23;;;;;;;8.9;6;;;;;;;6.17;73.67871;951.4202;;;;
2022/01/23 13:33:48;;;;;;;8.9;6.6;;;;;;;6.37;73.63574;951.3477;;;;
2022/01/23 13:36:13;;;;;;;7.7;5.9;;;;;;;6.45;73.09473;951.3571;;;;
2022/01/23 13:38:40;;;;;;;9.4;6.6;;;;;;;6.22;73.75781;951.405;;;;
2022/01/23 13:41:10;;;;;;;9.1;6.6;;;;;;;6.24;73.72656;951.3923;;;;
2022/01/23 13:51:34;;;;;;;10.9;7.6;;;;;;;5.77;75.56543;951.3358;;;;
2022/01/23 13:53:28;;;;;;;11;7.8;;;;;;;5.84;76.1416;951.3153;;;;
2022/01/23 13:58:33;;;;;;;11.2;8.4;;;;;;;5.67;76.57324;951.3723;;;;
2022/01/23 14:00:42;;;;;;;12;8.9;;;;;;;5.58;77.08984;951.4534;;;;
2022/01/23 14:03:07;;;;;;;11.7;8.5;;;;;;;5.3;78.4043;951.4835;;;;
2022/01/23 14:05:36;;;;;;;14.1;9.4;;;;;;;4.97;79.74023;951.5219;;;;
2022/01/23 14:08:01;;;;;;;12;8.8;;;;;;;5.22;79.58398;951.562;;;;
2022/01/23 14:10:30;;;;;;;13.7;9;;;;;;;5.41;78.78516;951.5165;;;;
2022/01/23 14:12:55;;;;;;;10.7;8.4;;;;;;;5.25;78.23633;951.502;;;;
2022/01/23 14:15:28;;;;;;;10;7.5;;;;;;;5.2;78.92676;951.5411;;;;
2022/01/23 14:17:51;;;;;;;9.2;7.5;;;;;;;5.3;78.45898;951.4727;;;;
2022/01/23 14:20:18;;;;;;;10;7.4;;;;;;;5.29;78.69531;951.5129;;;;
2022/01/23 14:22:43;;;;;;;9.9;7.1;;;;;;;5.38;78.37207;951.4886;;;;
2022/01/23 14:25:08;;;;;;;9.6;7;;;;;;;5.24;78.68359;951.4475;;;;
2022/01/23 14:27:37;;;;;;;8.4;6.7;;;;;;;5.05;78.59375;951.4481;;;;
2022/01/23 14:30:03;;;;;;;9.9;7;;;;;;;4.99;79.42578;951.3917;;;;
2022/01/23 14:32:36;;;;;;;9.1;6.7;;;;;;;4.34;81.87305;951.3851;;;;
2022/01/23 14:34:56;;;;;;;8.9;7.2;;;;;;;4.44;82.10742;951.3727;;;;
2022/01/23 14:37:23;;;;;;;9.2;7;;;;;;;4.65;81.37012;951.3448;;;;
2022/01/23 14:39:50;;;;;;;9.1;6.8;;;;;;;4.6;81.96777;951.3164;;;;
2022/01/23 14:42:15;;;;;;;8.9;7.3;;;;;;;4.53;82.00098;951.3706;;;;
2022/01/23 14:44:40;;;;;;;9.4;7.2;;;;;;;4.75;81.31055;951.3051;;;;
2022/01/23 14:47:06;;;;;;;11.5;8;;;;;;;4.7;82.13379;951.2485;;;;
2022/01/23 14:49:32;;;;;;;9.7;7.3;;;;;;;4.63;81.93945;951.3019;;;;
2022/01/23 14:51:59;;;;;;;10.1;7;;;;;;;4.26;83.0498;951.3295;;;;
2022/01/23 14:54:24;;;;;;;9.7;7.3;;;;;;;4.46;82.68555;951.2784;;;;
2022/01/23 14:56:51;;;;;;;8.5;6.9;;;;;;;4.67;81.91406;951.2463;;;;
2022/01/23 14:59:16;;;;;;;9.7;7.4;;;;;;;4.55;82.38574;951.2492;;;;
2022/01/23 15:01:41;;;;;;;10.5;7.8;;;;;;;4.71;82.01367;951.1918;;;;
2022/01/23 15:04:09;;;;;;;9.7;7.4;;;;;;;4.73;81.18164;951.2425;;;;
2022/01/23 15:06:34;;;;;;;10.7;7.8;;;;;;;4.67;81.11523;951.2992;;;;
2022/01/23 15:09:02;;;;;;;11;8.2;;;;;;;4.76;81.01758;951.3432;;;;
2022/01/23 15:11:27;;;;;;;10.4;8;;;;;;;4.68;81.22754;951.4352;;;;
2022/01/23 15:13:55;;;;;;;10.5;8.2;;;;;;;4.52;81.54688;951.4612;;;;
2022/01/23 15:16:20;;;;;;;12;8.8;;;;;;;4.57;81.35449;951.4617;;;;
2022/01/23 15:18:49;;;;;;;12.7;9.1;;;;;;;4.34;82.85156;951.3733;;;;
2022/01/23 15:21:18;;;;;;;13;9.4;;;;;;;4.22;83.12207;951.43;;;;
2022/01/23 15:23:43;;;;;;;11.3;9.1;;;;;;;4;84.37305;951.4852;;;;
2022/01/23 15:26:10;;;;;;;12.7;9.1;;;;;;;4.06;84.6084;951.413;;;;
2022/01/23 15:28:35;;;;;;;14.9;9.9;;;;;;;4;84.70801;951.4835;;;;
2022/01/23 15:31:00;;;;;;;15.4;10;;;;;;;3.85;85.45508;951.4611;;;;
2022/01/23 15:33:26;;;;;;;13.8;9.8;;;;;;;3.73;86.17285;951.4533;;;;
2022/01/23 15:35:51;;;;;;;14.2;10.6;;;;;;;3.98;85.43555;951.4579;;;;
2022/01/23 15:38:18;;;;;;;15.2;10.4;;;;;;;4.04;85.09961;951.4658;;;;
2022/01/23 15:40:43;;;;;;;15.4;10.7;;;;;;;3.86;85.50195;951.4071;;;;
2022/01/23 15:43:08;;;;;;;13.8;10.3;;;;;;;3.88;85.95508;951.4587;;;;
2022/01/23 15:45:33;;;;;;;14.1;10;;;;;;;3.76;86.05469;951.543;;;;
2022/01/23 15:48:01;;;;;;;12.5;9.4;;;;;;;3.85;86.23047;951.6022;;;;
2022/01/23 15:50:26;;;;;;;12.5;9.6;;;;;;;3.54;86.73926;951.66;;;;
2022/01/23 15:52:53;;;;;;;13.5;10.2;;;;;;;3.69;86.77051;951.7023;;;;
2022/01/23 15:55:19;;;;;;;16.2;11.4;;;;;;;3.73;86.86816;951.7287;;;;
2022/01/23 15:57:48;;;;;;;78.3;39.3;;;;;;;3.79;86.64648;951.6609;;;;
2022/01/23 16:00:11;;;;;;;25.1;13.9;;;;;;;3.86;86.1875;951.7421;;;;
2022/01/23 16:02:38;;;;;;;71.8;35.5;;;;;;;3.65;86.59473;951.8053;;;;
2022/01/23 16:05:03;;;;;;;13.6;9.7;;;;;;;3.75;86.48047;951.7969;;;;
2022/01/23 16:07:28;;;;;;;15.6;11;;;;;;;3.72;86.43945;951.7439;;;;
2022/01/23 16:09:53;;;;;;;11;8.9;;;;;;;3.78;86.01367;951.6499;;;;
2022/01/23 16:12:21;;;;;;;14.1;10.5;;;;;;;3.75;85.71582;951.6694;;;;
2022/01/23 16:14:46;;;;;;;36;20;;;;;;;3.65;86.30273;951.6928;;;;
2022/01/23 16:17:16;;;;;;;17.2;11.1;;;;;;;3.68;86.37598;951.6757;;;;
2022/01/23 16:19:45;;;;;;;10.6;8.1;;;;;;;3.69;85.89453;951.622;;;;
2022/01/23 16:22:10;;;;;;;10.7;8.3;;;;;;;3.71;86.01074;951.5781;;;;
2022/01/23 16:24:37;;;;;;;11.4;8.3;;;;;;;3.74;85.54395;951.5655;;;;
2022/01/23 16:27:02;;;;;;;33.3;23.7;;;;;;;3.85;85.3877;951.6312;;;;
2022/01/23 16:29:31;;;;;;;30.7;16.3;;;;;;;3.85;85.4873;951.6672;;;;
2022/01/23 16:31:57;;;;;;;17.9;12.5;;;;;;;3.87;85.64941;951.645;;;;
2022/01/23 16:34:27;;;;;;;15.5;10.6;;;;;;;3.85;85.9502;951.6155;;;;
2022/01/23 16:36:50;;;;;;;13.8;10.5;;;;;;;3.82;85.97656;951.6506;;;;
2022/01/23 16:39:16;;;;;;;15.5;12.1;;;;;;;3.83;86.1582;951.6061;;;;
2022/01/23 16:41:40;;;;;;;14.9;10.7;;;;;;;3.85;86.26465;951.5988;;;;
2022/01/23 16:44:08;;;;;;;12;8.5;;;;;;;3.83;86.54199;951.5554;;;;
2022/01/23 16:46:35;;;;;;;14;8.3;;;;;;;3.73;86.62305;951.4366;;;;
2022/01/23 16:49:01;;;;;;;12.1;9;;;;;;;3.76;86.85352;951.5447;;;;
2022/01/23 16:51:27;;;;;;;12.7;9.5;;;;;;;3.58;87.16406;951.5739;;;;
2022/01/23 16:53:52;;;;;;;16.6;11.4;;;;;;;3.27;88.26953;951.5884;;;;
2022/01/23 16:56:18;;;;;;;17.9;14;;;;;;;3.11;89.72754;951.5186;;;;
2022/01/23 16:58:44;;;;;;;20.2;13.9;;;;;;;3.01;90.86426;951.5435;;;;
2022/01/23 17:01:10;;;;;;;22.3;16.8;;;;;;;2.92;90.9873;951.4814;;;;
2022/01/23 17:03:35;;;;;;;24;18;;;;;;;2.82;91.51563;951.6384;;;;
2022/01/23 17:06:03;;;;;;;23.2;17.9;;;;;;;2.84;91.56543;951.6805;;;;
2022/01/23 17:08:28;;;;;;;20.6;16;;;;;;;2.88;91.37207;951.6523;;;;
2022/01/23 17:10:55;;;;;;;35.6;29.3;;;;;;;2.92;91.55859;951.6834;;;;
2022/01/23 17:13:20;;;;;;;32.5;25;;;;;;;2.97;90.84375;951.7075;;;;
2022/01/23 17:15:54;;;;;;;35;25.1;;;;;;;3.2;90.38672;951.6841;;;;
2022/01/23 17:18:19;;;;;;;47.3;37;;;;;;;3.26;90.06152;951.5722;;;;
2022/01/23 17:20:52;;;;;;;40;27;;;;;;;3.07;90.24609;951.5272;;;;
2022/01/23 17:23:20;;;;;;;33;24.2;;;;;;;3.08;90.16895;951.5359;;;;